Time,TemperatureF,DewpointF,PressureIn,WindDirection,WindDirectionDegrees,WindSpeedMPH,WindSpeedGustMPH,Humidity,HourlyPrecipIn,Conditions,Clouds,dailyrainin,SoftwareType,DateUTC
2014-12-18 00:02:00,38.3,33.6,29.64,NW,314,0.0,0.0,83,0.00,,---,0.00,VWS V14.01,2014-12-18 05:02:00,
2014-12-18 00:07:00,38.3,33.6,29.64,NW,315,1.0,1.0,83,0.00,,---,0.00,VWS V14.01,2014-12-18 05:07:00,
2014-12-18 00:12:00,38.2,33.5,29.64,NW,315,0.0,2.0,83,0.00,,---,0.00,VWS V14.01,2014-12-18 05:12:00,
2014-12-18 00:17:00,38.1,33.7,29.64,NW,314,1.0,2.0,84,0.00,,---,0.00,VWS V14.01,2014-12-18 05:17:00,
2014-12-18 00:22:00,38.0,33.6,29.64,ESE,118,4.0,4.0,84,0.00,,---,0.00,VWS V14.01,2014-12-18 05:22:00,
2014-12-18 00:27:00,37.9,33.5,29.65,WNW,292,0.0,2.0,84,0.00,,---,0.00,VWS V14.01,2014-12-18 05:27:00,
2014-12-18 00:32:00,37.9,33.5,29.64,NW,313,0.0,4.0,84,0.00,,---,0.00,VWS V14.01,2014-12-18 05:32:00,
2014-12-18 00:37:00,37.8,33.4,29.64,NW,313,0.0,0.0,84,0.00,,---,0.00,VWS V14.01,2014-12-18 05:37:00,
2014-12-18 00:42:00,37.8,33.4,29.64,NW,304,2.0,4.0,84,0.00,,---,0.00,VWS V14.01,2014-12-18 05:42:00,
2014-12-18 00:47:00,37.8,33.4,29.64,NNW,336,0.0,1.0,84,0.00,,---,0.00,VWS V14.01,2014-12-18 05:47:00,
2014-12-18 00:52:00,37.8,33.4,29.64,NW,307,0.0,3.0,84,0.00,,---,0.00,VWS V14.01,2014-12-18 05:52:00,
2014-12-18 00:57:00,37.8,33.4,29.64,WNW,302,0.0,3.0,84,0.00,,---,0.00,VWS V14.01,2014-12-18 05:57:00,
2014-12-18 01:02:00,37.7,33.3,29.64,West,275,0.0,2.0,84,0.00,,---,0.00,VWS V14.01,2014-12-18 06:02:00,
2014-12-18 01:07:00,37.7,33.0,29.64,WNW,303,3.0,3.0,83,0.00,,---,0.00,VWS V14.01,2014-12-18 06:07:00,
2014-12-18 01:12:00,37.7,33.3,29.64,NW,310,0.0,3.0,84,0.00,,---,0.00,VWS V14.01,2014-12-18 06:12:00,
2014-12-18 01:17:00,37.7,33.0,29.64,NW,310,0.0,0.0,83,0.00,,---,0.00,VWS V14.01,2014-12-18 06:17:00,
2014-12-18 01:22:00,37.7,33.0,29.64,NW,326,0.0,4.0,83,0.00,,---,0.00,VWS V14.01,2014-12-18 06:22:00,
2014-12-18 01:27:00,37.7,33.0,29.64,NW,326,1.0,3.0,83,0.00,,---,0.00,VWS V14.01,2014-12-18 06:27:00,
2014-12-18 01:32:00,37.8,33.1,29.64,NW,313,0.0,4.0,83,0.00,,---,0.00,VWS V14.01,2014-12-18 06:32:00,
2014-12-18 01:37:00,37.8,32.8,29.64,NNW,334,0.0,0.0,82,0.00,,---,0.00,VWS V14.01,2014-12-18 06:37:00,
2014-12-18 01:42:00,37.8,32.8,29.64,NW,304,0.0,0.0,82,0.00,,---,0.00,VWS V14.01,2014-12-18 06:42:00,
2014-12-18 01:47:00,37.7,33.0,29.64,NW,304,0.0,0.0,83,0.00,,---,0.00,VWS V14.01,2014-12-18 06:47:00,
2014-12-18 01:52:00,37.6,32.9,29.64,NW,304,0.0,2.0,83,0.00,,---,0.00,VWS V14.01,2014-12-18 06:52:00,
2014-12-18 01:57:00,37.5,32.8,29.64,NW,306,0.0,0.0,83,0.00,,---,0.00,VWS V14.01,2014-12-18 06:57:00,
2014-12-18 02:02:00,37.5,32.8,29.64,NW,306,0.0,0.0,83,0.00,,---,0.00,VWS V14.01,2014-12-18 07:02:00,
2014-12-18 02:07:00,37.5,33.1,29.65,NW,306,1.0,1.0,84,0.00,,---,0.00,VWS V14.01,2014-12-18 07:07:00,
2014-12-18 02:12:00,37.4,33.0,29.65,NW,306,2.0,3.0,84,0.00,,---,0.00,VWS V14.01,2014-12-18 07:12:00,
2014-12-18 02:17:00,37.4,33.0,29.65,NW,318,2.0,3.0,84,0.00,,---,0.00,VWS V14.01,2014-12-18 07:17:00,
2014-12-18 02:22:00,37.4,33.0,29.65,NW,309,2.0,3.0,84,0.00,,---,0.00,VWS V14.01,2014-12-18 07:22:00,
2014-12-18 02:27:00,37.4,32.7,29.65,WNW,294,3.0,3.0,83,0.00,,---,0.00,VWS V14.01,2014-12-18 07:27:00,
2014-12-18 02:32:00,37.5,32.8,29.65,NW,320,1.0,2.0,83,0.00,,---,0.00,VWS V14.01,2014-12-18 07:32:00,
2014-12-18 02:37:00,37.5,32.8,29.65,NW,311,2.0,3.0,83,0.00,,---,0.00,VWS V14.01,2014-12-18 07:37:00,
2014-12-18 02:42:00,37.5,32.8,29.65,West,281,2.0,3.0,83,0.00,,---,0.00,VWS V14.01,2014-12-18 07:42:00,
2014-12-18 02:47:00,37.6,32.9,29.65,WNW,302,0.0,3.0,83,0.00,,---,0.00,VWS V14.01,2014-12-18 07:47:00,
2014-12-18 02:52:00,37.6,32.6,29.65,NW,309,1.0,4.0,82,0.00,,---,0.00,VWS V14.01,2014-12-18 07:52:00,
2014-12-18 02:57:00,37.6,32.9,29.65,NW,309,1.0,2.0,83,0.00,,---,0.00,VWS V14.01,2014-12-18 07:57:00,
2014-12-18 03:02:00,37.5,32.8,29.65,NW,309,0.0,1.0,83,0.00,,---,0.00,VWS V14.01,2014-12-18 08:02:00,
2014-12-18 03:07:00,37.5,32.8,29.65,NW,310,0.0,1.0,83,0.00,,---,0.00,VWS V14.01,2014-12-18 08:07:00,
2014-12-18 03:12:00,37.5,32.8,29.65,NW,315,0.0,2.0,83,0.00,,---,0.00,VWS V14.01,2014-12-18 08:12:00,
2014-12-18 03:17:00,37.5,32.8,29.65,NW,314,0.0,1.0,83,0.00,,---,0.00,VWS V14.01,2014-12-18 08:17:00,
2014-12-18 03:22:00,37.4,32.7,29.65,NW,315,0.0,0.0,83,0.00,,---,0.00,VWS V14.01,2014-12-18 08:22:00,
2014-12-18 03:27:00,37.4,32.7,29.64,NW,315,0.0,1.0,83,0.00,,---,0.00,VWS V14.01,2014-12-18 08:27:00,
2014-12-18 03:32:00,37.3,32.6,29.64,NW,313,0.0,1.0,83,0.00,,---,0.00,VWS V14.01,2014-12-18 08:32:00,
2014-12-18 03:37:00,37.3,32.6,29.64,WNW,300,1.0,3.0,83,0.00,,---,0.00,VWS V14.01,2014-12-18 08:37:00,
2014-12-18 03:42:00,37.4,32.4,29.64,NW,306,2.0,2.0,82,0.00,,---,0.00,VWS V14.01,2014-12-18 08:42:00,
2014-12-18 03:47:00,37.4,32.4,29.64,NW,317,0.0,1.0,82,0.00,,---,0.00,VWS V14.01,2014-12-18 08:47:00,
2014-12-18 03:52:00,37.3,32.3,29.64,NW,319,1.0,2.0,82,0.00,,---,0.00,VWS V14.01,2014-12-18 08:52:00,
2014-12-18 03:57:00,37.3,32.3,29.64,NW,319,0.0,2.0,82,0.00,,---,0.00,VWS V14.01,2014-12-18 08:57:00,
2014-12-18 04:02:00,37.3,32.3,29.64,NW,319,0.0,1.0,82,0.00,,---,0.00,VWS V14.01,2014-12-18 09:02:00,
2014-12-18 04:07:00,37.2,32.5,29.64,WNW,300,0.0,1.0,83,0.00,,---,0.00,VWS V14.01,2014-12-18 09:07:00,
2014-12-18 04:12:00,37.2,32.5,29.64,WNW,300,1.0,1.0,83,0.00,,---,0.00,VWS V14.01,2014-12-18 09:12:00,
2014-12-18 04:17:00,37.1,32.4,29.64,North,5,4.0,4.0,83,0.00,,---,0.00,VWS V14.01,2014-12-18 09:17:00,
2014-12-18 04:22:00,37.0,32.3,29.64,NW,308,1.0,1.0,83,0.00,,---,0.00,VWS V14.01,2014-12-18 09:22:00,
2014-12-18 04:27:00,37.0,32.3,29.65,WNW,287,1.0,3.0,83,0.00,,---,0.00,VWS V14.01,2014-12-18 09:27:00,
2014-12-18 04:32:00,36.9,32.5,29.65,WNW,287,2.0,2.0,84,0.00,,---,0.00,VWS V14.01,2014-12-18 09:32:00,
2014-12-18 04:37:00,36.7,32.6,29.65,WNW,287,0.0,2.0,85,0.00,,---,0.00,VWS V14.01,2014-12-18 09:37:00,
2014-12-18 04:42:00,36.5,32.4,29.65,WNW,288,0.0,0.0,85,0.00,,---,0.00,VWS V14.01,2014-12-18 09:42:00,
2014-12-18 04:47:00,36.3,32.5,29.65,WNW,288,0.0,0.0,86,0.00,,---,0.00,VWS V14.01,2014-12-18 09:47:00,
2014-12-18 04:51:00,36.2,32.7,29.65,WNW,288,0.0,0.0,87,0.00,,---,0.00,VWS V14.01,2014-12-18 09:51:00,
2014-12-18 04:56:00,36.0,32.5,29.65,NW,310,1.0,3.0,87,0.00,,---,0.00,VWS V14.01,2014-12-18 09:56:00,
2014-12-18 05:01:00,35.9,32.7,29.66,NW,309,0.0,2.0,88,0.00,,---,0.00,VWS V14.01,2014-12-18 10:01:00,
2014-12-18 05:06:00,35.9,32.7,29.66,WNW,295,0.0,0.0,88,0.00,,---,0.00,VWS V14.01,2014-12-18 10:06:00,
2014-12-18 05:11:00,35.8,32.6,29.66,NW,314,0.0,0.0,88,0.00,,---,0.00,VWS V14.01,2014-12-18 10:11:00,
2014-12-18 05:16:00,35.7,32.8,29.66,NW,314,1.0,1.0,89,0.00,,---,0.00,VWS V14.01,2014-12-18 10:16:00,
2014-12-18 05:21:00,35.6,32.7,29.66,NW,314,0.0,0.0,89,0.00,,---,0.00,VWS V14.01,2014-12-18 10:21:00,
2014-12-18 05:26:00,35.5,32.6,29.66,NW,314,0.0,2.0,89,0.00,,---,0.00,VWS V14.01,2014-12-18 10:26:00,
2014-12-18 05:31:00,35.3,32.7,29.66,NNE,25,1.0,2.0,90,0.00,,---,0.00,VWS V14.01,2014-12-18 10:31:00,
2014-12-18 05:36:00,35.2,32.6,29.66,North,360,0.0,0.0,90,0.00,,---,0.00,VWS V14.01,2014-12-18 10:36:00,
2014-12-18 05:41:00,35.0,32.6,29.66,NW,321,0.0,0.0,91,0.00,,---,0.00,VWS V14.01,2014-12-18 10:41:00,
2014-12-18 05:46:00,35.0,32.6,29.66,NW,321,0.0,0.0,91,0.00,,---,0.00,VWS V14.01,2014-12-18 10:46:00,
2014-12-18 05:51:00,34.9,32.5,29.67,WNW,284,1.0,1.0,91,0.00,,---,0.00,VWS V14.01,2014-12-18 10:51:00,
2014-12-18 05:56:00,34.8,32.5,29.67,WNW,283,0.0,0.0,91,0.00,,---,0.00,VWS V14.01,2014-12-18 10:56:00,
2014-12-18 06:01:00,34.7,32.6,29.67,WNW,288,0.0,0.0,92,0.00,,---,0.00,VWS V14.01,2014-12-18 11:01:00,
2014-12-18 06:06:00,34.6,32.5,29.67,WNW,288,0.0,0.0,92,0.00,,---,0.00,VWS V14.01,2014-12-18 11:06:00,
2014-12-18 06:11:00,34.5,32.4,29.67,WNW,288,0.0,0.0,92,0.00,,---,0.00,VWS V14.01,2014-12-18 11:11:00,
2014-12-18 06:16:00,34.4,32.3,29.67,WNW,288,0.0,0.0,92,0.00,,---,0.00,VWS V14.01,2014-12-18 11:16:00,
2014-12-18 06:21:00,34.4,32.3,29.67,WNW,288,0.0,0.0,92,0.00,,---,0.00,VWS V14.01,2014-12-18 11:21:00,
2014-12-18 06:26:00,34.4,32.3,29.67,WNW,288,0.0,0.0,92,0.00,,---,0.00,VWS V14.01,2014-12-18 11:26:00,
2014-12-18 06:31:00,34.4,32.6,29.67,WNW,288,0.0,0.0,93,0.00,,---,0.00,VWS V14.01,2014-12-18 11:31:00,
2014-12-18 06:36:00,34.3,32.5,29.67,NNW,333,0.0,1.0,93,0.01,,---,0.01,VWS V14.01,2014-12-18 11:36:00,
2014-12-18 06:41:00,34.2,32.4,29.68,NNW,333,0.0,0.0,93,0.01,,---,0.01,VWS V14.01,2014-12-18 11:41:00,
2014-12-18 06:46:00,34.1,32.3,29.67,NNW,333,0.0,0.0,93,0.01,,---,0.01,VWS V14.01,2014-12-18 11:46:00,
2014-12-18 06:51:00,34.0,32.2,29.68,NNW,333,0.0,1.0,93,0.01,,---,0.01,VWS V14.01,2014-12-18 11:51:00,
2014-12-18 06:56:00,34.0,32.2,29.68,NNW,333,0.0,0.0,93,0.01,,---,0.01,VWS V14.01,2014-12-18 11:56:00,
2014-12-18 07:01:00,33.9,32.1,29.68,NNW,333,0.0,0.0,93,0.01,,---,0.01,VWS V14.01,2014-12-18 12:01:00,
2014-12-18 07:06:00,33.9,32.1,29.68,NNW,333,0.0,0.0,93,0.01,,---,0.01,VWS V14.01,2014-12-18 12:06:00,
2014-12-18 07:11:00,33.8,32.3,29.68,NNW,333,0.0,0.0,94,0.01,,---,0.01,VWS V14.01,2014-12-18 12:11:00,
2014-12-18 07:16:00,33.8,32.3,29.68,WNW,293,0.0,0.0,94,0.02,,---,0.02,VWS V14.01,2014-12-18 12:16:00,
2014-12-18 07:21:00,33.7,32.2,29.68,WNW,293,0.0,0.0,94,0.02,,---,0.02,VWS V14.01,2014-12-18 12:21:00,
2014-12-18 07:26:00,33.7,32.2,29.68,WNW,293,0.0,0.0,94,0.02,,---,0.02,VWS V14.01,2014-12-18 12:26:00,
2014-12-18 07:31:00,33.7,32.2,29.68,WNW,292,0.0,0.0,94,0.02,,---,0.02,VWS V14.01,2014-12-18 12:31:00,
2014-12-18 07:36:00,33.7,32.2,29.68,WNW,292,0.0,0.0,94,0.02,,---,0.02,VWS V14.01,2014-12-18 12:36:00,
2014-12-18 07:41:00,33.7,32.2,29.69,WNW,293,0.0,1.0,94,0.01,,---,0.02,VWS V14.01,2014-12-18 12:41:00,
2014-12-18 07:46:00,33.8,32.3,29.69,WNW,293,0.0,0.0,94,0.01,,---,0.02,VWS V14.01,2014-12-18 12:46:00,
2014-12-18 07:51:00,33.9,32.4,29.69,WNW,293,0.0,0.0,94,0.01,,---,0.02,VWS V14.01,2014-12-18 12:51:00,
2014-12-18 07:56:00,34.0,32.5,29.69,WNW,293,0.0,0.0,94,0.01,,---,0.02,VWS V14.01,2014-12-18 12:56:00,
2014-12-18 08:01:00,34.1,32.6,29.69,WNW,292,0.0,1.0,94,0.01,,---,0.02,VWS V14.01,2014-12-18 13:01:00,
2014-12-18 08:06:00,34.2,32.7,29.69,WNW,293,0.0,0.0,94,0.01,,---,0.02,VWS V14.01,2014-12-18 13:06:00,
2014-12-18 08:11:00,34.4,32.9,29.69,WNW,293,0.0,0.0,94,0.01,,---,0.02,VWS V14.01,2014-12-18 13:11:00,
2014-12-18 08:16:00,34.4,32.9,29.69,NW,317,2.0,2.0,94,0.00,,---,0.02,VWS V14.01,2014-12-18 13:16:00,
2014-12-18 08:21:00,34.4,32.9,29.69,NW,317,0.0,1.0,94,0.00,,---,0.02,VWS V14.01,2014-12-18 13:21:00,
2014-12-18 08:26:00,34.4,32.9,29.70,NW,317,0.0,1.0,94,0.00,,---,0.02,VWS V14.01,2014-12-18 13:26:00,
2014-12-18 08:31:00,34.6,32.8,29.70,NW,317,0.0,2.0,93,0.00,,---,0.02,VWS V14.01,2014-12-18 13:31:00,
2014-12-18 08:36:00,34.8,33.0,29.70,NW,315,1.0,1.0,93,0.00,,---,0.02,VWS V14.01,2014-12-18 13:36:00,
2014-12-18 08:41:00,35.0,32.9,29.70,NW,319,0.0,0.0,92,0.00,,---,0.02,VWS V14.01,2014-12-18 13:41:00,
2014-12-18 08:46:00,35.2,33.1,29.70,NW,310,1.0,3.0,92,0.00,,---,0.02,VWS V14.01,2014-12-18 13:46:00,
2014-12-18 08:51:00,35.3,32.9,29.70,NW,310,1.0,2.0,91,0.00,,---,0.02,VWS V14.01,2014-12-18 13:51:00,
2014-12-18 08:56:00,35.5,32.9,29.70,WNW,303,0.0,5.0,90,0.00,,---,0.02,VWS V14.01,2014-12-18 13:56:00,
2014-12-18 09:01:00,35.7,33.1,29.70,NW,304,1.0,3.0,90,0.00,,---,0.02,VWS V14.01,2014-12-18 14:01:00,
2014-12-18 09:06:00,36.0,33.1,29.70,WNW,294,1.0,3.0,89,0.00,,---,0.02,VWS V14.01,2014-12-18 14:06:00,
2014-12-18 09:11:00,36.3,33.1,29.70,WNW,302,4.0,4.0,88,0.00,,---,0.02,VWS V14.01,2014-12-18 14:11:00,
2014-12-18 09:16:00,36.7,33.2,29.71,WNW,291,6.0,6.0,87,0.00,,---,0.02,VWS V14.01,2014-12-18 14:16:00,
2014-12-18 09:21:00,37.1,33.0,29.71,NW,318,3.0,3.0,85,0.00,,---,0.02,VWS V14.01,2014-12-18 14:21:00,
2014-12-18 09:26:00,37.5,32.8,29.71,NNW,330,1.0,7.0,83,0.00,,---,0.02,VWS V14.01,2014-12-18 14:26:00,
2014-12-18 09:31:00,37.8,32.8,29.71,WNW,283,2.0,4.0,82,0.00,,---,0.02,VWS V14.01,2014-12-18 14:31:00,
2014-12-18 09:36:00,38.1,33.1,29.71,NW,317,0.0,4.0,82,0.00,,---,0.02,VWS V14.01,2014-12-18 14:36:00,
2014-12-18 09:41:00,38.4,33.4,29.71,NW,304,4.0,4.0,82,0.00,,---,0.02,VWS V14.01,2014-12-18 14:41:00,
2014-12-18 09:46:00,38.7,33.1,29.71,West,271,2.0,2.0,80,0.00,,---,0.02,VWS V14.01,2014-12-18 14:46:00,
2014-12-18 09:51:00,38.8,33.2,29.71,WNW,293,0.0,1.0,80,0.00,,---,0.02,VWS V14.01,2014-12-18 14:51:00,
2014-12-18 09:56:00,39.0,33.7,29.71,NW,313,4.0,5.0,81,0.00,,---,0.02,VWS V14.01,2014-12-18 14:56:00,
2014-12-18 10:01:00,39.1,33.2,29.71,NW,311,1.0,1.0,79,0.00,,---,0.02,VWS V14.01,2014-12-18 15:01:00,
2014-12-18 10:06:00,39.2,33.6,29.71,WNW,292,0.0,0.0,80,0.00,,---,0.02,VWS V14.01,2014-12-18 15:06:00,
2014-12-18 10:11:00,39.4,33.4,29.71,NNW,339,5.0,7.0,79,0.00,,---,0.02,VWS V14.01,2014-12-18 15:11:00,
2014-12-18 10:16:00,39.6,33.0,29.71,WNW,303,5.0,7.0,77,0.00,,---,0.02,VWS V14.01,2014-12-18 15:16:00,
2014-12-18 10:21:00,39.7,33.1,29.71,NW,311,3.0,3.0,77,0.00,,---,0.02,VWS V14.01,2014-12-18 15:21:00,
2014-12-18 10:26:00,40.0,33.4,29.71,WNW,298,2.0,4.0,77,0.00,,---,0.02,VWS V14.01,2014-12-18 15:26:00,
2014-12-18 10:31:00,40.1,33.5,29.71,WNW,300,3.0,3.0,77,0.00,,---,0.02,VWS V14.01,2014-12-18 15:31:00,
2014-12-18 10:36:00,40.4,33.8,29.71,NW,313,0.0,2.0,77,0.00,,---,0.02,VWS V14.01,2014-12-18 15:36:00,
2014-12-18 10:41:00,40.8,33.5,29.71,SW,230,1.0,3.0,75,0.00,,---,0.02,VWS V14.01,2014-12-18 15:41:00,
2014-12-18 10:46:00,40.9,33.9,29.71,WNW,302,2.0,3.0,76,0.00,,---,0.02,VWS V14.01,2014-12-18 15:46:00,
2014-12-18 10:51:00,41.1,33.5,29.71,NW,317,0.0,1.0,74,0.00,,---,0.02,VWS V14.01,2014-12-18 15:51:00,
2014-12-18 10:56:00,41.2,33.9,29.71,WNW,292,6.0,6.0,75,0.00,,---,0.02,VWS V14.01,2014-12-18 15:56:00,
2014-12-18 11:01:00,40.9,33.3,29.71,WNW,301,0.0,2.0,74,0.00,,---,0.02,VWS V14.01,2014-12-18 16:01:00,
2014-12-18 11:06:00,40.6,33.0,29.71,WNW,303,0.0,1.0,74,0.00,,---,0.02,VWS V14.01,2014-12-18 16:06:00,
2014-12-18 11:11:00,40.5,32.9,29.71,NW,322,2.0,3.0,74,0.00,,---,0.02,VWS V14.01,2014-12-18 16:11:00,
2014-12-18 11:16:00,40.5,32.9,29.71,WNW,292,2.0,4.0,74,0.00,,---,0.02,VWS V14.01,2014-12-18 16:16:00,
2014-12-18 11:21:00,40.4,32.8,29.71,NW,317,3.0,5.0,74,0.00,,---,0.02,VWS V14.01,2014-12-18 16:21:00,
2014-12-18 11:26:00,40.6,33.0,29.71,NW,321,3.0,5.0,74,0.00,,---,0.02,VWS V14.01,2014-12-18 16:26:00,
2014-12-18 11:31:00,40.8,32.8,29.71,NW,310,2.0,3.0,73,0.00,,---,0.02,VWS V14.01,2014-12-18 16:31:00,
2014-12-18 11:36:00,40.7,32.7,29.71,WNW,298,7.0,7.0,73,0.00,,---,0.02,VWS V14.01,2014-12-18 16:36:00,
2014-12-18 11:41:00,40.6,33.0,29.71,WNW,295,2.0,5.0,74,0.00,,---,0.02,VWS V14.01,2014-12-18 16:41:00,
2014-12-18 11:46:00,40.6,32.6,29.70,NW,315,2.0,2.0,73,0.00,,---,0.02,VWS V14.01,2014-12-18 16:46:00,
2014-12-18 11:51:00,40.6,33.3,29.70,NW,315,0.0,1.0,75,0.00,,---,0.02,VWS V14.01,2014-12-18 16:51:00,
2014-12-18 11:56:00,40.8,33.5,29.70,NW,319,3.0,4.0,75,0.00,,---,0.02,VWS V14.01,2014-12-18 16:56:00,
2014-12-18 12:01:00,40.9,33.3,29.70,WNW,298,0.0,0.0,74,0.00,,---,0.02,VWS V14.01,2014-12-18 17:01:00,
2014-12-18 12:06:00,40.8,32.8,29.70,WNW,298,0.0,0.0,73,0.00,,---,0.02,VWS V14.01,2014-12-18 17:06:00,
2014-12-18 12:11:00,40.8,33.2,29.70,WNW,298,1.0,1.0,74,0.00,,---,0.02,VWS V14.01,2014-12-18 17:11:00,
2014-12-18 12:16:00,40.7,32.7,29.70,NNW,334,0.0,0.0,73,0.00,,---,0.02,VWS V14.01,2014-12-18 17:16:00,
2014-12-18 12:21:00,40.6,33.0,29.70,NW,318,0.0,0.0,74,0.00,,---,0.02,VWS V14.01,2014-12-18 17:21:00,
2014-12-18 12:26:00,40.6,33.0,29.70,NW,316,0.0,0.0,74,0.00,,---,0.02,VWS V14.01,2014-12-18 17:26:00,
2014-12-18 12:31:00,40.6,33.3,29.70,NW,316,0.0,0.0,75,0.00,,---,0.02,VWS V14.01,2014-12-18 17:31:00,
2014-12-18 12:36:00,40.6,33.0,29.70,NNW,329,0.0,1.0,74,0.00,,---,0.02,VWS V14.01,2014-12-18 17:36:00,
2014-12-18 12:41:00,40.6,33.0,29.69,NW,315,1.0,1.0,74,0.00,,---,0.02,VWS V14.01,2014-12-18 17:41:00,
2014-12-18 12:45:00,40.6,33.0,29.70,NW,306,1.0,2.0,74,0.00,,---,0.02,VWS V14.01,2014-12-18 17:45:00,
2014-12-18 12:50:00,40.6,33.0,29.70,NW,305,0.0,1.0,74,0.00,,---,0.02,VWS V14.01,2014-12-18 17:50:00,
2014-12-18 12:55:00,40.7,32.7,29.69,NW,322,0.0,0.0,73,0.00,,---,0.02,VWS V14.01,2014-12-18 17:55:00,
2014-12-18 13:00:00,40.7,32.7,29.69,NW,321,0.0,4.0,73,0.00,,---,0.02,VWS V14.01,2014-12-18 18:00:00,
2014-12-18 13:05:00,40.7,32.4,29.69,NW,321,0.0,0.0,72,0.00,,---,0.02,VWS V14.01,2014-12-18 18:05:00,
2014-12-18 13:10:00,40.8,32.8,29.69,NNW,331,1.0,2.0,73,0.00,,---,0.02,VWS V14.01,2014-12-18 18:10:00,
2014-12-18 13:15:00,40.9,32.6,29.69,NW,317,2.0,2.0,72,0.00,,---,0.02,VWS V14.01,2014-12-18 18:15:00,
2014-12-18 13:20:00,40.9,32.6,29.69,NW,310,0.0,0.0,72,0.00,,---,0.02,VWS V14.01,2014-12-18 18:20:00,
2014-12-18 13:25:00,41.0,32.7,29.69,NW,310,1.0,3.0,72,0.00,,---,0.02,VWS V14.01,2014-12-18 18:25:00,
2014-12-18 13:30:00,41.0,32.7,29.69,NW,307,0.0,1.0,72,0.00,,---,0.02,VWS V14.01,2014-12-18 18:30:00,
2014-12-18 13:35:00,41.0,32.7,29.69,WNW,291,0.0,1.0,72,0.00,,---,0.02,VWS V14.01,2014-12-18 18:35:00,
2014-12-18 13:40:00,41.0,32.7,29.69,NW,304,1.0,1.0,72,0.00,,---,0.02,VWS V14.01,2014-12-18 18:40:00,
2014-12-18 13:45:00,41.0,33.0,29.69,WSW,240,4.0,4.0,73,0.00,,---,0.02,VWS V14.01,2014-12-18 18:45:00,
2014-12-18 13:50:00,41.1,33.1,29.69,WNW,291,0.0,2.0,73,0.00,,---,0.02,VWS V14.01,2014-12-18 18:50:00,
2014-12-18 13:55:00,41.4,33.1,29.69,West,275,0.0,2.0,72,0.00,,---,0.02,VWS V14.01,2014-12-18 18:55:00,
2014-12-18 14:00:00,41.6,32.9,29.69,WNW,294,4.0,4.0,71,0.00,,---,0.02,VWS V14.01,2014-12-18 19:00:00,
2014-12-18 14:05:00,41.7,33.3,29.69,WNW,298,0.0,0.0,72,0.00,,---,0.02,VWS V14.01,2014-12-18 19:05:00,
2014-12-18 14:10:00,41.8,33.1,29.69,WNW,289,0.0,2.0,71,0.00,,---,0.02,VWS V14.01,2014-12-18 19:10:00,
2014-12-18 14:15:00,41.5,32.8,29.69,WNW,287,3.0,3.0,71,0.00,,---,0.02,VWS V14.01,2014-12-18 19:15:00,
2014-12-18 14:20:00,41.3,32.6,29.69,WNW,290,0.0,0.0,71,0.00,,---,0.02,VWS V14.01,2014-12-18 19:20:00,
2014-12-18 14:25:00,41.1,32.4,29.69,WNW,302,0.0,0.0,71,0.00,,---,0.02,VWS V14.01,2014-12-18 19:25:00,
2014-12-18 14:30:00,40.9,32.2,29.70,NNW,331,1.0,1.0,71,0.00,,---,0.02,VWS V14.01,2014-12-18 19:30:00,
2014-12-18 14:35:00,40.6,32.0,29.70,WNW,302,1.0,1.0,71,0.00,,---,0.02,VWS V14.01,2014-12-18 19:35:00,
2014-12-18 14:40:00,40.4,32.1,29.71,NW,310,0.0,0.0,72,0.00,,---,0.02,VWS V14.01,2014-12-18 19:40:00,
2014-12-18 14:45:00,40.4,32.4,29.71,NW,310,0.0,0.0,73,0.00,,---,0.02,VWS V14.01,2014-12-18 19:45:00,
2014-12-18 14:50:00,40.4,32.1,29.71,NW,319,1.0,1.0,72,0.00,,---,0.02,VWS V14.01,2014-12-18 19:50:00,
2014-12-18 14:55:00,40.5,32.5,29.72,NW,315,1.0,2.0,73,0.00,,---,0.02,VWS V14.01,2014-12-18 19:55:00,
2014-12-18 15:00:00,40.6,32.3,29.72,NW,317,0.0,1.0,72,0.00,,---,0.02,VWS V14.01,2014-12-18 20:00:00,
2014-12-18 15:05:00,40.6,32.3,29.72,WNW,292,1.0,5.0,72,0.00,,---,0.02,VWS V14.01,2014-12-18 20:05:00,
2014-12-18 15:10:00,40.6,32.3,29.72,WNW,293,0.0,0.0,72,0.00,,---,0.02,VWS V14.01,2014-12-18 20:10:00,
2014-12-18 15:15:00,40.6,32.3,29.72,WNW,293,0.0,1.0,72,0.00,,---,0.02,VWS V14.01,2014-12-18 20:15:00,
2014-12-18 15:20:00,40.6,32.3,29.72,NW,311,0.0,3.0,72,0.00,,---,0.02,VWS V14.01,2014-12-18 20:20:00,
2014-12-18 15:25:00,40.5,32.2,29.72,NW,311,0.0,1.0,72,0.00,,---,0.02,VWS V14.01,2014-12-18 20:25:00,
2014-12-18 15:30:00,40.4,32.1,29.72,WNW,302,0.0,2.0,72,0.00,,---,0.02,VWS V14.01,2014-12-18 20:30:00,
2014-12-18 15:35:00,40.3,32.3,29.73,WNW,302,3.0,3.0,73,0.00,,---,0.02,VWS V14.01,2014-12-18 20:35:00,
2014-12-18 15:40:00,40.2,32.2,29.73,NW,315,1.0,2.0,73,0.00,,---,0.02,VWS V14.01,2014-12-18 20:40:00,
2014-12-18 15:45:00,40.2,31.9,29.73,NW,317,3.0,4.0,72,0.00,,---,0.02,VWS V14.01,2014-12-18 20:45:00,
2014-12-18 15:50:00,40.1,32.2,29.73,NW,310,2.0,3.0,73,0.00,,---,0.02,VWS V14.01,2014-12-18 20:50:00,
2014-12-18 15:55:00,40.0,31.7,29.73,NW,309,1.0,3.0,72,0.00,,---,0.02,VWS V14.01,2014-12-18 20:55:00,
2014-12-18 16:00:00,39.9,31.6,29.73,NW,321,1.0,2.0,72,0.00,,---,0.02,VWS V14.01,2014-12-18 21:00:00,
2014-12-18 16:05:00,39.8,31.5,29.73,WNW,288,2.0,4.0,72,0.00,,---,0.02,VWS V14.01,2014-12-18 21:05:00,
2014-12-18 16:10:00,39.7,31.4,29.74,NW,315,0.0,1.0,72,0.00,,---,0.02,VWS V14.01,2014-12-18 21:10:00,
2014-12-18 16:15:00,39.7,31.8,29.74,NW,315,2.0,3.0,73,0.00,,---,0.02,VWS V14.01,2014-12-18 21:15:00,
2014-12-18 16:20:00,39.6,31.7,29.74,WNW,298,0.0,1.0,73,0.00,,---,0.02,VWS V14.01,2014-12-18 21:20:00,
2014-12-18 16:25:00,39.5,31.6,29.74,WNW,287,0.0,0.0,73,0.00,,---,0.02,VWS V14.01,2014-12-18 21:25:00,
2014-12-18 16:30:00,39.4,31.8,29.74,WNW,288,0.0,0.0,74,0.00,,---,0.02,VWS V14.01,2014-12-18 21:30:00,
2014-12-18 16:35:00,39.3,31.7,29.74,NW,314,0.0,0.0,74,0.00,,---,0.02,VWS V14.01,2014-12-18 21:35:00,
2014-12-18 16:40:00,39.1,31.9,29.74,NW,314,0.0,1.0,75,0.00,,---,0.02,VWS V14.01,2014-12-18 21:40:00,
2014-12-18 16:45:00,39.0,31.8,29.74,NW,314,0.0,1.0,75,0.00,,---,0.02,VWS V14.01,2014-12-18 21:45:00,
2014-12-18 16:50:00,38.8,31.6,29.74,NW,314,2.0,2.0,75,0.00,,---,0.02,VWS V14.01,2014-12-18 21:50:00,
2014-12-18 16:55:00,38.6,31.7,29.74,NW,314,1.0,1.0,76,0.00,,---,0.02,VWS V14.01,2014-12-18 21:55:00,
2014-12-18 17:00:00,38.4,31.5,29.74,NW,311,0.0,0.0,76,0.00,,---,0.02,VWS V14.01,2014-12-18 22:00:00,
2014-12-18 17:05:00,38.3,31.4,29.74,NW,311,0.0,0.0,76,0.00,,---,0.02,VWS V14.01,2014-12-18 22:05:00,
2014-12-18 17:10:00,38.0,31.4,29.75,NW,310,0.0,0.0,77,0.00,,---,0.02,VWS V14.01,2014-12-18 22:10:00,
2014-12-18 17:15:00,37.8,31.2,29.75,NW,313,0.0,2.0,77,0.00,,---,0.02,VWS V14.01,2014-12-18 22:15:00,
2014-12-18 17:20:00,37.7,31.1,29.75,NW,313,0.0,0.0,77,0.00,,---,0.02,VWS V14.01,2014-12-18 22:20:00,
2014-12-18 17:25:00,37.5,31.0,29.75,NW,311,0.0,0.0,77,0.00,,---,0.02,VWS V14.01,2014-12-18 22:25:00,
2014-12-18 17:30:00,37.4,30.9,29.75,NW,311,0.0,0.0,77,0.00,,---,0.02,VWS V14.01,2014-12-18 22:30:00,
2014-12-18 17:35:00,37.4,31.2,29.75,NW,311,1.0,1.0,78,0.00,,---,0.02,VWS V14.01,2014-12-18 22:35:00,
2014-12-18 17:40:00,37.3,31.1,29.75,NW,311,2.0,2.0,78,0.00,,---,0.02,VWS V14.01,2014-12-18 22:40:00,
2014-12-18 17:45:00,37.1,30.6,29.75,NW,313,0.0,0.0,77,0.00,,---,0.02,VWS V14.01,2014-12-18 22:45:00,
2014-12-18 17:50:00,37.0,30.5,29.75,NW,313,1.0,1.0,77,0.00,,---,0.02,VWS V14.01,2014-12-18 22:50:00,
2014-12-18 17:55:00,36.9,30.4,29.76,NW,320,2.0,3.0,77,0.00,,---,0.02,VWS V14.01,2014-12-18 22:55:00,
2014-12-18 18:00:00,36.8,30.3,29.76,SW,231,0.0,0.0,77,0.00,,---,0.02,VWS V14.01,2014-12-18 23:00:00,
2014-12-18 18:05:00,36.7,30.2,29.76,NW,307,0.0,0.0,77,0.00,,---,0.02,VWS V14.01,2014-12-18 23:05:00,
2014-12-18 18:10:00,36.7,30.2,29.77,NW,325,2.0,2.0,77,0.00,,---,0.02,VWS V14.01,2014-12-18 23:10:00,
2014-12-18 18:15:00,36.7,30.5,29.77,NW,325,0.0,0.0,78,0.00,,---,0.02,VWS V14.01,2014-12-18 23:15:00,
2014-12-18 18:20:00,36.6,30.4,29.77,NW,325,0.0,0.0,78,0.00,,---,0.02,VWS V14.01,2014-12-18 23:20:00,